createdAt,value
2019-02-14T00:00:58.885Z,99.99
2019-02-14T00:01:58.876Z,99.99
2019-02-14T00:02:58.865Z,99.99
2019-02-14T00:03:58.853Z,99.99
2019-02-14T00:04:58.843Z,99.99
2019-02-14T00:05:58.830Z,99.99
2019-02-14T00:06:58.818Z,99.99
2019-02-14T00:07:58.811Z,99.99
2019-02-14T00:08:58.801Z,99.99
2019-02-14T00:09:58.787Z,99.99
2019-02-14T00:10:58.778Z,99.99
2019-02-14T00:11:58.767Z,99.99
2019-02-14T00:12:58.758Z,99.99
2019-02-14T00:13:58.750Z,99.99
2019-02-14T00:14:58.733Z,99.99
2019-02-14T00:15:58.726Z,99.99
2019-02-14T00:16:58.713Z,99.99
2019-02-14T00:17:58.703Z,99.99
2019-02-14T00:18:58.692Z,99.99
2019-02-14T00:19:58.684Z,99.99
2019-02-14T00:20:58.672Z,99.99
2019-02-14T00:21:58.664Z,99.99
2019-02-14T00:22:58.654Z,99.99
2019-02-14T00:23:58.640Z,99.99
2019-02-14T00:24:58.630Z,99.99
2019-02-14T00:25:58.622Z,99.99
2019-02-14T00:26:58.610Z,99.99
2019-02-14T00:27:58.600Z,99.99
2019-02-14T00:28:58.590Z,99.99
2019-02-14T00:29:58.578Z,99.99
2019-02-14T00:30:58.563Z,99.99
2019-02-14T00:31:58.552Z,99.99
2019-02-14T00:32:58.544Z,99.99
2019-02-14T00:33:58.535Z,99.99
2019-02-14T00:34:58.520Z,99.99
2019-02-14T00:35:58.515Z,99.99
2019-02-14T00:36:58.500Z,99.99
2019-02-14T00:37:58.491Z,99.99
2019-02-14T00:38:58.481Z,99.99
2019-02-14T00:39:58.470Z,99.99
2019-02-14T00:40:58.457Z,99.99
2019-02-14T00:41:58.449Z,99.99
2019-02-14T00:42:58.483Z,99.99
2019-02-14T00:43:58.431Z,99.99
2019-02-14T00:44:58.416Z,99.99
2019-02-14T00:45:58.404Z,99.99
2019-02-14T00:46:58.394Z,99.99
2019-02-14T00:47:58.383Z,99.99
2019-02-14T00:48:58.377Z,99.99
2019-02-14T00:49:58.364Z,99.99
2019-02-14T00:50:58.353Z,99.99
2019-02-14T00:51:58.349Z,99.99
2019-02-14T00:52:58.333Z,99.99
2019-02-14T00:53:58.319Z,99.99
2019-02-14T00:54:58.312Z,99.99
2019-02-14T00:55:58.297Z,99.99
2019-02-14T00:56:58.286Z,99.99
2019-02-14T00:57:58.278Z,99.99
2019-02-14T00:58:58.266Z,99.99
2019-02-14T00:59:58.262Z,99.99
2019-02-14T01:00:58.250Z,99.99
2019-02-14T01:01:58.237Z,99.99
2019-02-14T01:02:58.225Z,99.99
2019-02-14T01:03:58.211Z,99.99
2019-02-14T01:04:58.204Z,99.99
2019-02-14T01:05:58.252Z,99.99
2019-02-14T01:06:58.179Z,99.99
2019-02-14T01:07:58.172Z,99.99
2019-02-14T01:08:58.160Z,99.99
2019-02-14T01:09:58.148Z,99.99
2019-02-14T01:10:58.144Z,99.99
2019-02-14T01:11:58.131Z,99.99
2019-02-14T01:12:58.116Z,99.99
2019-02-14T01:13:58.105Z,99.99
2019-02-14T01:14:58.094Z,99.99
2019-02-14T01:15:58.088Z,99.99
2019-02-14T01:16:58.073Z,99.99
2019-02-14T01:17:58.063Z,99.99
2019-02-14T01:18:58.051Z,99.99
2019-02-14T01:19:58.041Z,99.99
2019-02-14T01:20:58.032Z,99.99
2019-02-14T01:21:58.022Z,99.99
2019-02-14T01:22:58.011Z,99.99
2019-02-14T01:23:58.017Z,99.99
2019-02-14T01:24:57.990Z,99.99
2019-02-14T01:25:57.977Z,99.99
2019-02-14T01:26:57.970Z,99.99
2019-02-14T01:27:57.959Z,99.99
2019-02-14T01:28:57.946Z,99.99
2019-02-14T01:29:57.937Z,99.99
2019-02-14T01:30:57.952Z,99.99
2019-02-14T01:31:57.916Z,99.99
2019-02-14T01:32:57.906Z,99.99
2019-02-14T01:33:57.895Z,99.99
2019-02-14T01:34:57.881Z,99.99
2019-02-14T01:35:57.872Z,99.99
2019-02-14T01:36:57.861Z,99.99
2019-02-14T01:37:57.849Z,99.99
2019-02-14T01:38:57.841Z,99.99
2019-02-14T01:39:57.833Z,99.99
2019-02-14T01:40:57.823Z,99.99
2019-02-14T01:41:57.808Z,99.99
2019-02-14T01:42:57.798Z,99.99
2019-02-14T01:43:57.789Z,99.78
2019-02-14T01:44:57.779Z,99.99
2019-02-14T01:45:57.764Z,99.99
2019-02-14T01:46:57.754Z,99.78
2019-02-14T01:47:57.744Z,99.88
2019-02-14T01:48:57.733Z,99.99
2019-02-14T01:49:57.724Z,99.99
2019-02-14T01:50:57.710Z,99.99
2019-02-14T01:51:57.701Z,99.99
2019-02-14T01:52:57.690Z,99.99
2019-02-14T01:53:57.678Z,99.99
2019-02-14T01:54:57.670Z,99.99
2019-02-14T01:55:57.665Z,99.99
2019-02-14T01:56:57.646Z,99.99
2019-02-14T01:57:57.636Z,99.99
2019-02-14T01:58:57.630Z,99.78
2019-02-14T01:59:57.620Z,99.88
2019-02-14T02:00:57.605Z,99.88
2019-02-14T02:01:57.594Z,99.88
2019-02-14T02:02:57.584Z,99.78
2019-02-14T02:03:57.572Z,99.88
2019-02-14T02:04:57.561Z,99.99
2019-02-14T02:05:57.553Z,99.88
2019-02-14T02:06:57.545Z,99.99
2019-02-14T02:07:57.531Z,99.99
2019-02-14T02:08:57.521Z,99.78
2019-02-14T02:09:57.508Z,99.78
2019-02-14T02:10:57.500Z,99.88
2019-02-14T02:11:57.492Z,99.99
2019-02-14T02:12:57.479Z,99.99
2019-02-14T02:13:57.468Z,99.99
2019-02-14T02:14:57.459Z,99.88
2019-02-14T02:15:57.466Z,99.78
2019-02-14T02:16:57.438Z,99.88
2019-02-14T02:17:57.431Z,99.99
2019-02-14T02:18:57.412Z,99.99
2019-02-14T02:19:57.403Z,99.99
2019-02-14T02:20:57.390Z,99.99
2019-02-14T02:21:57.381Z,99.88
2019-02-14T02:22:57.369Z,99.99
2019-02-14T02:23:57.362Z,99.99
2019-02-14T02:24:57.351Z,99.99
2019-02-14T02:25:57.339Z,99.99
2019-02-14T02:26:57.328Z,99.57
2019-02-14T02:27:57.320Z,99.68
2019-02-14T02:28:57.306Z,99.99
2019-02-14T02:29:57.295Z,99.16
2019-02-14T02:30:57.285Z,99.26
2019-02-14T02:31:57.289Z,99.16
2019-02-14T02:32:57.270Z,99.06
2019-02-14T02:33:57.255Z,98.96
2019-02-14T02:34:57.254Z,99.06
2019-02-14T02:36:00.436Z,98.96
2019-02-14T02:36:57.221Z,98.85
2019-02-14T02:37:57.210Z,98.96
2019-02-14T02:38:57.199Z,98.54
2019-02-14T02:39:57.249Z,98.75
2019-02-14T02:40:57.182Z,98.96
2019-02-14T02:41:57.169Z,98.75
2019-02-14T02:42:57.156Z,98.65
2019-02-14T02:43:57.149Z,98.54
2019-02-14T02:44:57.135Z,98.54
2019-02-14T02:45:57.133Z,98.65
2019-02-14T02:46:57.114Z,98.85
2019-02-14T02:47:57.105Z,98.44
2019-02-14T02:48:57.094Z,98.44
2019-02-14T02:49:57.084Z,98.54
2019-02-14T02:50:57.072Z,98.44
2019-02-14T02:51:57.059Z,98.33
2019-02-14T02:52:57.050Z,98.33
2019-02-14T02:53:57.041Z,98.54
2019-02-14T02:54:57.028Z,98.54
2019-02-14T02:55:57.025Z,98.23
2019-02-14T02:56:57.007Z,97.82
2019-02-14T02:57:57.001Z,98.23
2019-02-14T02:58:56.987Z,97.92
2019-02-14T02:59:56.979Z,98.23
2019-02-14T03:00:56.968Z,98.13
2019-02-14T03:01:56.956Z,98.44
2019-02-14T03:02:56.962Z,98.44
2019-02-14T03:03:56.934Z,98.54
2019-02-14T03:04:56.923Z,98.65
2019-02-14T03:05:56.912Z,98.65
2019-02-14T03:06:56.902Z,98.85
2019-02-14T03:07:56.893Z,98.65
2019-02-14T03:08:56.880Z,98.54
2019-02-14T03:09:56.872Z,98.23
2019-02-14T03:10:56.858Z,98.44
2019-02-14T03:11:56.846Z,98.54
2019-02-14T03:12:56.837Z,98.54
2019-02-14T03:13:56.825Z,98.54
2019-02-14T03:14:56.817Z,98.44
2019-02-14T03:15:56.805Z,98.13
2019-02-14T03:16:56.794Z,98.44
2019-02-14T03:17:56.783Z,98.54
2019-02-14T03:18:56.776Z,98.54
2019-02-14T03:19:56.762Z,98.23
2019-02-14T03:20:56.751Z,98.23
2019-02-14T03:21:56.739Z,98.13
2019-02-14T03:22:56.730Z,97.82
2019-02-14T03:23:56.719Z,98.65
2019-02-14T03:24:56.709Z,98.79
2019-02-14T03:25:56.703Z,98.85
2019-02-14T03:26:56.686Z,98.44
2019-02-14T03:27:56.675Z,99.47
2019-02-14T03:28:56.668Z,98.90
2019-02-14T03:29:56.656Z,98.96
2019-02-14T03:30:56.647Z,98.90
2019-02-14T03:31:56.636Z,98.44
2019-02-14T03:32:56.625Z,98.23
2019-02-14T03:33:56.612Z,98.49
2019-02-14T03:34:56.601Z,98.23
2019-02-14T03:35:56.591Z,98.18
2019-02-14T03:36:56.580Z,98.33
2019-02-14T03:37:56.587Z,97.82
2019-02-14T03:38:56.558Z,97.76
2019-02-14T03:39:56.551Z,97.86
2019-02-14T03:40:56.537Z,97.76
2019-02-14T03:41:56.530Z,97.76
2019-02-14T03:42:56.518Z,97.66
2019-02-14T03:43:56.506Z,98.07
2019-02-14T03:44:56.496Z,97.55
2019-02-14T03:45:56.486Z,97.34
2019-02-14T03:46:56.475Z,96.79
2019-02-14T03:47:56.465Z,97.55
2019-02-14T03:48:56.451Z,97.45
2019-02-14T03:49:56.442Z,97.45
2019-02-14T03:50:56.432Z,97.34
2019-02-14T03:51:56.420Z,97.25
2019-02-14T03:52:56.412Z,97.45
2019-02-14T03:53:56.400Z,97.45
2019-02-14T03:54:56.391Z,97.45
2019-02-14T03:55:56.380Z,97.55
2019-02-14T03:56:56.370Z,97.25
2019-02-14T03:57:56.363Z,97.34
2019-02-14T03:58:56.346Z,97.04
2019-02-14T03:59:56.337Z,97.55
2019-02-14T04:00:56.325Z,97.14
2019-02-14T04:01:56.314Z,97.25
2019-02-14T04:02:56.305Z,97.14
2019-02-14T04:03:56.293Z,97.66
2019-02-14T04:04:56.283Z,97.34
2019-02-14T04:05:56.272Z,97.25
2019-02-14T04:06:56.307Z,96.94
2019-02-14T04:07:56.252Z,96.98
2019-02-14T04:08:56.243Z,96.62
2019-02-14T04:09:56.229Z,96.94
2019-02-14T04:10:56.220Z,96.42
2019-02-14T04:11:56.208Z,97.04
2019-02-14T04:12:56.198Z,96.83
2019-02-14T04:13:56.189Z,96.94
2019-02-14T04:14:56.175Z,96.88
2019-02-14T04:15:56.164Z,96.62
2019-02-14T04:16:56.155Z,96.94
2019-02-14T04:17:56.143Z,96.47
2019-02-14T04:18:56.133Z,96.31
2019-02-14T04:19:56.123Z,96.01
2019-02-14T04:20:56.113Z,96.31
2019-02-14T04:21:56.105Z,96.31
2019-02-14T04:22:56.091Z,96.52
2019-02-14T04:23:56.081Z,96.31
2019-02-14T04:24:56.071Z,96.77
2019-02-14T04:25:56.059Z,96.52
2019-02-14T04:26:56.048Z,96.52
2019-02-14T04:27:56.037Z,96.21
2019-02-14T04:28:56.026Z,96.42
2019-02-14T04:29:56.020Z,96.31
2019-02-14T04:30:56.009Z,96.36
2019-02-14T04:31:55.995Z,96.21
2019-02-14T04:32:55.983Z,96.52
2019-02-14T04:33:55.973Z,96.36
2019-02-14T04:34:55.961Z,96.31
2019-02-14T04:35:55.954Z,96.21
2019-02-14T04:36:55.964Z,96.42
2019-02-14T04:37:55.930Z,96.42
2019-02-14T04:38:55.920Z,96.36
2019-02-14T04:39:55.908Z,96.21
2019-02-14T04:40:55.900Z,96.83
2019-02-14T04:41:55.888Z,96.42
2019-02-14T04:42:55.878Z,96.67
2019-02-14T04:43:55.867Z,96.31
2019-02-14T04:44:55.858Z,96.47
2019-02-14T04:45:55.843Z,96.47
2019-02-14T04:46:55.836Z,97.19
2019-02-14T04:47:55.828Z,96.26
2019-02-14T04:48:55.811Z,96.21
2019-02-14T04:49:55.801Z,96.62
2019-02-14T04:50:55.791Z,96.52
2019-02-14T04:51:55.782Z,96.52
2019-02-14T04:52:55.768Z,96.36
2019-02-14T04:53:55.760Z,96.26
2019-02-14T04:54:55.755Z,96.36
2019-02-14T04:55:55.738Z,96.21
2019-02-14T04:56:55.733Z,96.26
2019-02-14T04:57:55.719Z,96.52
2019-02-14T04:58:55.706Z,96.21
2019-02-14T04:59:55.697Z,96.31
2019-02-14T05:00:55.687Z,96.62
2019-02-14T05:01:55.674Z,95.49
2019-02-14T05:02:55.664Z,95.59
2019-02-14T05:03:55.652Z,95.28
2019-02-14T05:04:55.642Z,95.70
2019-02-14T05:05:55.631Z,95.95
2019-02-14T05:06:55.620Z,95.80
2019-02-14T05:07:55.609Z,95.80
2019-02-14T05:08:55.600Z,95.28
2019-02-14T05:09:55.588Z,95.80
2019-02-14T05:10:55.578Z,95.80
2019-02-14T05:11:55.570Z,95.43
2019-02-14T05:12:55.558Z,95.74
2019-02-14T05:13:55.546Z,95.49
2019-02-14T05:14:55.535Z,95.39
2019-02-14T05:15:55.525Z,95.70
2019-02-14T05:16:55.512Z,95.28
2019-02-14T05:17:55.503Z,95.49
2019-02-14T05:18:55.501Z,95.49
2019-02-14T05:19:55.484Z,95.49
2019-02-14T05:20:55.469Z,95.64
2019-02-14T05:21:55.464Z,95.84
2019-02-14T05:22:55.450Z,95.28
2019-02-14T05:23:55.439Z,95.64
2019-02-14T05:24:55.428Z,95.53
2019-02-14T05:25:55.417Z,95.70
2019-02-14T05:26:55.408Z,95.59
2019-02-14T05:27:55.396Z,95.70
2019-02-14T05:28:55.388Z,95.70
2019-02-14T05:29:55.379Z,95.80
2019-02-14T05:30:55.364Z,96.77
2019-02-14T05:31:55.353Z,96.73
2019-02-14T05:32:55.341Z,95.84
2019-02-14T05:33:55.331Z,95.74
2019-02-14T05:34:55.329Z,95.39
2019-02-14T05:35:55.310Z,95.49
2019-02-14T05:36:55.412Z,95.64
2019-02-14T05:37:55.288Z,95.49
2019-02-14T05:38:55.277Z,95.18
2019-02-14T05:39:55.271Z,94.77
2019-02-14T05:40:55.257Z,94.87
2019-02-14T05:41:55.248Z,94.87
2019-02-14T05:42:55.235Z,95.07
2019-02-14T05:43:55.225Z,95.28
2019-02-14T05:44:55.265Z,94.97
2019-02-14T05:45:55.205Z,95.02
2019-02-14T05:46:55.195Z,95.18
2019-02-14T05:47:55.185Z,95.39
2019-02-14T05:48:55.172Z,95.07
2019-02-14T05:49:55.161Z,95.18
2019-02-14T05:50:55.155Z,94.67
2019-02-14T05:51:55.143Z,95.18
2019-02-14T05:52:55.133Z,95.28
2019-02-14T05:53:55.118Z,95.18
2019-02-14T05:54:55.109Z,94.04
2019-02-14T05:55:55.096Z,93.94
2019-02-14T05:56:55.088Z,94.35
2019-02-14T05:57:55.082Z,93.84
2019-02-14T05:58:55.068Z,94.04
2019-02-14T05:59:55.059Z,94.04
2019-02-14T06:00:55.044Z,94.04
2019-02-14T06:01:55.037Z,93.94
2019-02-14T06:02:55.023Z,94.04
2019-02-14T06:03:55.010Z,93.63
2019-02-14T06:04:55.000Z,93.84
2019-02-14T06:05:54.991Z,94.04
2019-02-14T06:07:00.906Z,93.84
2019-02-14T06:07:55.967Z,93.84
2019-02-14T06:08:54.957Z,94.19
2019-02-14T06:09:54.947Z,94.15
2019-02-14T06:10:54.937Z,93.73
2019-02-14T06:11:54.926Z,93.84
2019-02-14T06:12:54.916Z,94.09
2019-02-14T06:13:54.904Z,94.09
2019-02-14T06:14:54.896Z,93.88
2019-02-14T06:15:54.886Z,94.15
2019-02-14T06:16:54.873Z,94.15
2019-02-14T06:17:54.862Z,94.19
2019-02-14T06:18:54.852Z,93.78
2019-02-14T06:19:54.845Z,94.04
2019-02-14T06:20:54.879Z,94.09
2019-02-14T06:21:54.821Z,94.35
2019-02-14T06:22:54.809Z,94.04
2019-02-14T06:23:54.799Z,93.98
2019-02-14T06:24:54.789Z,93.88
2019-02-14T06:25:54.779Z,93.53
2019-02-14T06:26:54.772Z,93.88
2019-02-14T06:27:54.757Z,93.22
2019-02-14T06:28:54.745Z,93.05
2019-02-14T06:29:54.733Z,93.22
2019-02-14T06:30:54.722Z,93.22
2019-02-14T06:31:54.713Z,92.80
2019-02-14T06:32:54.705Z,92.29
2019-02-14T06:33:54.691Z,93.12
2019-02-14T06:34:54.681Z,92.91
2019-02-14T06:35:54.670Z,92.80
2019-02-14T06:36:54.661Z,92.60
2019-02-14T06:37:54.652Z,92.80
2019-02-14T06:38:54.641Z,92.91
2019-02-14T06:39:54.626Z,92.91
2019-02-14T06:40:54.617Z,93.07
2019-02-14T06:41:54.606Z,92.14
2019-02-14T06:42:54.594Z,92.55
2019-02-14T06:43:54.584Z,91.98
2019-02-14T06:44:54.572Z,92.04
2019-02-14T06:45:54.562Z,91.73
2019-02-14T06:46:54.551Z,91.88
2019-02-14T06:47:54.546Z,91.98
2019-02-14T06:48:54.531Z,91.42
2019-02-14T06:49:54.523Z,91.52
2019-02-14T06:50:54.509Z,91.73
2019-02-14T06:51:54.498Z,91.88
2019-02-14T06:52:54.486Z,91.42
2019-02-14T06:53:54.475Z,91.42
2019-02-14T06:54:54.466Z,91.73
2019-02-14T06:55:54.455Z,91.73
2019-02-14T06:56:54.444Z,91.83
2019-02-14T06:57:54.436Z,91.22
2019-02-14T06:58:54.428Z,92.04
2019-02-14T06:59:54.415Z,91.63
2019-02-14T07:00:54.402Z,91.94
2019-02-14T07:01:54.392Z,91.01
2019-02-14T07:02:54.381Z,91.11
2019-02-14T07:03:54.369Z,90.91
2019-02-14T07:04:54.360Z,91.22
2019-02-14T07:05:54.348Z,91.01
2019-02-14T07:06:54.338Z,91.32
2019-02-14T07:07:54.333Z,91.11
2019-02-14T07:08:54.318Z,90.76
2019-02-14T07:09:54.306Z,90.59
2019-02-14T07:10:54.294Z,90.14
2019-02-14T07:11:54.287Z,90.45
2019-02-14T07:12:54.272Z,90.66
2019-02-14T07:13:54.263Z,90.45
2019-02-14T07:14:54.252Z,91.48
2019-02-14T07:15:54.242Z,90.35
2019-02-14T07:16:54.231Z,90.25
2019-02-14T07:17:54.220Z,90.35
2019-02-14T07:18:54.209Z,89.94
2019-02-14T07:19:54.199Z,90.25
2019-02-14T07:20:54.188Z,89.73
2019-02-14T07:21:54.178Z,89.83
2019-02-14T07:22:54.171Z,89.48
2019-02-14T07:23:54.156Z,89.48
2019-02-14T07:24:54.146Z,89.22
2019-02-14T07:25:54.139Z,89.58
2019-02-14T07:26:54.127Z,89.62
2019-02-14T07:27:54.114Z,89.79
2019-02-14T07:28:54.103Z,89.79
2019-02-14T07:29:54.097Z,89.89
2019-02-14T07:30:54.082Z,89.69
2019-02-14T07:31:54.072Z,89.89
2019-02-14T07:32:54.063Z,89.42
2019-02-14T07:33:54.893Z,89.17
2019-02-14T07:34:54.044Z,89.48
2019-02-14T07:35:54.030Z,89.48
2019-02-14T07:36:54.023Z,89.38
2019-02-14T07:37:54.017Z,89.07
2019-02-14T07:38:53.999Z,89.79
2019-02-14T07:39:53.989Z,89.79
2019-02-14T07:40:53.977Z,89.07
2019-02-14T07:41:53.967Z,89.28
2019-02-14T07:42:53.956Z,89.28
2019-02-14T07:43:53.945Z,88.86
2019-02-14T07:44:53.940Z,89.42
2019-02-14T07:45:53.924Z,89.89
2019-02-14T07:46:53.913Z,89.52
2019-02-14T07:47:53.902Z,89.62
2019-02-14T07:48:53.893Z,89.79
2019-02-14T07:49:53.883Z,89.69
2019-02-14T07:50:53.870Z,89.69
2019-02-14T07:51:53.859Z,89.17
2019-02-14T07:52:53.851Z,88.96
2019-02-14T07:53:53.841Z,88.56
2019-02-14T07:54:53.857Z,88.65
2019-02-14T07:55:53.821Z,89.17
2019-02-14T07:56:53.807Z,88.35
2019-02-14T07:57:53.797Z,88.14
2019-02-14T07:58:53.787Z,88.10
2019-02-14T07:59:53.777Z,88.35
2019-02-14T08:00:53.764Z,88.20
2019-02-14T08:01:53.754Z,88.20
2019-02-14T08:02:53.745Z,87.69
2019-02-14T08:03:53.735Z,87.93
2019-02-14T08:04:53.723Z,88.10
2019-02-14T08:05:53.711Z,87.90
2019-02-14T08:06:53.701Z,87.59
2019-02-14T08:07:53.690Z,87.38
2019-02-14T08:08:53.679Z,88.51
2019-02-14T08:09:53.669Z,87.99
2019-02-14T08:10:53.659Z,87.69
2019-02-14T08:11:53.647Z,87.17
2019-02-14T08:12:53.640Z,87.07
2019-02-14T08:13:53.629Z,87.07
2019-02-14T08:14:53.616Z,87.69
2019-02-14T08:15:53.604Z,86.45
2019-02-14T08:16:53.634Z,87.17
2019-02-14T08:17:53.586Z,87.48
2019-02-14T08:18:53.577Z,87.07
2019-02-14T08:19:53.561Z,87.65
2019-02-14T08:20:53.555Z,87.96
2019-02-14T08:21:53.547Z,87.34
2019-02-14T08:22:53.532Z,87.03
2019-02-14T08:23:53.520Z,86.21
2019-02-14T08:24:53.509Z,85.89
2019-02-14T08:25:53.497Z,86.10
2019-02-14T08:26:53.487Z,85.38
2019-02-14T08:27:53.476Z,85.79
2019-02-14T08:28:53.465Z,86.21
2019-02-14T08:29:53.455Z,86.00
2019-02-14T08:30:53.444Z,85.75
2019-02-14T08:31:53.433Z,85.49
2019-02-14T08:32:53.425Z,85.44
2019-02-14T08:33:53.411Z,85.75
2019-02-14T08:34:53.400Z,86.16
2019-02-14T08:35:53.389Z,85.24
2019-02-14T08:36:53.377Z,85.65
2019-02-14T08:37:54.008Z,85.44
2019-02-14T08:38:53.357Z,85.34
2019-02-14T08:39:53.349Z,85.24
2019-02-14T08:40:55.251Z,85.55
2019-02-14T08:41:53.324Z,85.30
2019-02-14T08:42:53.317Z,84.79
2019-02-14T08:43:53.304Z,84.07
2019-02-14T08:44:53.291Z,84.17
2019-02-14T08:45:53.285Z,84.27
2019-02-14T08:46:53.269Z,83.86
2019-02-14T08:47:53.259Z,83.45
2019-02-14T08:48:53.249Z,84.17
2019-02-14T08:49:53.240Z,85.26
2019-02-14T08:50:53.226Z,83.51
2019-02-14T08:51:53.221Z,83.65
2019-02-14T08:52:53.206Z,84.17
2019-02-14T08:53:53.197Z,83.41
2019-02-14T08:54:53.183Z,83.72
2019-02-14T08:55:53.174Z,84.13
2019-02-14T08:56:53.163Z,83.72
2019-02-14T08:57:53.151Z,83.51
2019-02-14T08:58:53.139Z,83.00
2019-02-14T08:59:53.133Z,82.69
2019-02-14T09:00:53.121Z,84.13
2019-02-14T09:01:53.109Z,82.59
2019-02-14T09:02:53.099Z,83.00
2019-02-14T09:03:53.087Z,82.86
2019-02-14T09:04:53.075Z,83.78
2019-02-14T09:05:53.066Z,82.76
2019-02-14T09:06:53.054Z,82.55
2019-02-14T09:07:54.886Z,81.62
2019-02-14T09:08:53.032Z,81.52
2019-02-14T09:09:53.022Z,82.04
2019-02-14T09:10:53.013Z,81.83
2019-02-14T09:11:53.001Z,81.32
2019-02-14T09:12:52.994Z,81.01
2019-02-14T09:13:52.991Z,81.52
2019-02-14T09:14:52.970Z,81.62
2019-02-14T09:15:52.957Z,81.32
2019-02-14T09:16:52.950Z,82.04
2019-02-14T09:17:52.936Z,81.52
2019-02-14T09:18:52.929Z,81.83
2019-02-14T09:19:52.916Z,82.55
2019-02-14T09:20:52.902Z,81.83
2019-02-14T09:21:52.891Z,82.82
2019-02-14T09:22:52.883Z,82.31
2019-02-14T09:23:52.872Z,80.93
2019-02-14T09:24:53.259Z,79.12
2019-02-14T09:25:52.849Z,80.87
2019-02-14T09:26:52.839Z,80.15
2019-02-14T09:27:52.835Z,79.94
2019-02-14T09:28:52.817Z,79.60
2019-02-14T09:29:52.806Z,79.80
2019-02-14T09:30:52.796Z,79.91
2019-02-14T09:31:52.786Z,78.98
2019-02-14T09:32:52.781Z,78.88
2019-02-14T09:33:52.766Z,80.07
2019-02-14T09:34:52.755Z,77.95
2019-02-14T09:35:52.742Z,78.78
2019-02-14T09:36:52.734Z,78.36
2019-02-14T09:37:52.721Z,78.36
2019-02-14T09:38:52.711Z,79.08
2019-02-14T09:39:52.699Z,77.95
2019-02-14T09:40:52.695Z,77.23
2019-02-14T09:41:52.682Z,77.65
2019-02-14T09:42:52.676Z,77.00
2019-02-14T09:43:52.656Z,77.00
2019-02-14T09:44:52.650Z,77.61
2019-02-14T09:45:52.636Z,76.79
2019-02-14T09:46:52.624Z,76.68
2019-02-14T09:47:54.036Z,76.45
2019-02-14T09:48:52.606Z,76.89
2019-02-14T09:49:52.607Z,76.65
2019-02-14T09:50:52.583Z,76.10
2019-02-14T09:51:52.572Z,76.75
2019-02-14T09:52:52.560Z,76.72
2019-02-14T09:53:52.550Z,76.20
2019-02-14T09:54:52.602Z,74.84
2019-02-14T09:55:52.531Z,74.32
2019-02-14T09:56:52.516Z,74.94
2019-02-14T09:57:52.506Z,74.53
2019-02-14T09:58:52.504Z,74.32
2019-02-14T09:59:52.503Z,74.53
2019-02-14T10:00:52.475Z,73.27
2019-02-14T10:01:52.465Z,73.57
2019-02-14T10:02:52.489Z,73.78
2019-02-14T10:03:52.470Z,73.27
2019-02-14T10:04:52.437Z,73.13
2019-02-14T10:05:52.429Z,68.70
2019-02-14T10:06:52.430Z,68.84
2019-02-14T10:07:52.399Z,67.40
2019-02-14T10:08:52.389Z,68.97
2019-02-14T10:09:52.401Z,69.31
2019-02-14T10:10:52.370Z,69.44
2019-02-14T10:11:52.367Z,70.36
2019-02-14T10:12:52.347Z,70.91
2019-02-14T10:13:52.334Z,68.55
2019-02-14T10:14:52.324Z,68.76
2019-02-14T10:15:52.312Z,70.23
2019-02-14T10:16:52.500Z,70.87
2019-02-14T10:17:52.455Z,71.42
2019-02-14T10:18:52.355Z,70.91
2019-02-14T10:19:52.425Z,72.03
2019-02-14T10:20:52.380Z,71.32
2019-02-14T10:21:52.374Z,70.91
2019-02-14T10:22:52.263Z,70.40
2019-02-14T10:23:52.261Z,71.52
2019-02-14T10:24:52.745Z,71.01
2019-02-14T10:25:52.244Z,70.91
2019-02-14T10:26:52.220Z,70.81
2019-02-14T10:27:52.209Z,70.60
2019-02-14T10:28:52.224Z,70.50
2019-02-14T10:29:52.213Z,70.36
2019-02-14T10:30:52.214Z,71.08
2019-02-14T10:31:52.176Z,69.98
2019-02-14T10:32:52.168Z,70.70
2019-02-14T10:33:52.127Z,70.91
2019-02-14T10:34:52.120Z,71.86
2019-02-14T10:35:52.100Z,71.76
2019-02-14T10:36:52.089Z,71.66
2019-02-14T10:37:52.082Z,72.31
2019-02-14T10:38:52.067Z,72.17
2019-02-14T10:39:52.055Z,72.17
2019-02-14T10:40:52.045Z,72.78
2019-02-14T10:41:52.037Z,72.07
2019-02-14T10:42:52.025Z,72.17
2019-02-14T10:43:52.024Z,72.58
2019-02-14T10:44:52.007Z,71.66
2019-02-14T10:45:51.992Z,72.34
2019-02-14T10:46:51.981Z,71.01
2019-02-14T10:47:51.971Z,71.39
2019-02-14T10:48:51.965Z,71.28
2019-02-14T10:49:51.949Z,69.31
2019-02-14T10:50:51.944Z,69.07
2019-02-14T10:51:51.928Z,69.00
2019-02-14T10:52:51.919Z,69.34
2019-02-14T10:53:51.911Z,69.34
2019-02-14T10:54:51.897Z,69.75
2019-02-14T10:55:51.885Z,68.46
2019-02-14T10:56:51.875Z,68.18
2019-02-14T10:57:51.863Z,70.06
2019-02-14T10:58:51.853Z,69.47
2019-02-14T10:59:51.842Z,70.77
2019-02-14T11:00:51.832Z,70.84
2019-02-14T11:01:51.821Z,71.22
2019-02-14T11:02:51.812Z,71.04
2019-02-14T11:03:51.815Z,71.04
2019-02-14T11:04:51.789Z,71.08
2019-02-14T11:05:51.780Z,68.32
2019-02-14T11:06:51.769Z,68.46
2019-02-14T11:07:51.760Z,67.10
2019-02-14T11:08:51.746Z,67.71
2019-02-14T11:09:51.733Z,67.10
2019-02-14T11:10:51.724Z,66.82
2019-02-14T11:11:51.712Z,67.30
2019-02-14T11:12:51.701Z,68.52
2019-02-14T11:13:51.690Z,66.89
2019-02-14T11:14:51.680Z,67.30
2019-02-14T11:15:51.679Z,67.64
2019-02-14T11:16:51.665Z,68.66
2019-02-14T11:17:51.648Z,67.97
2019-02-14T11:18:51.638Z,68.90
2019-02-14T11:19:51.625Z,68.62
2019-02-14T11:20:51.617Z,69.47
2019-02-14T11:21:51.605Z,69.24
2019-02-14T11:22:51.595Z,67.02
2019-02-14T11:23:51.586Z,67.03
2019-02-14T11:24:51.572Z,62.62
2019-02-14T11:25:51.561Z,61.54
2019-02-14T11:26:51.550Z,58.81
2019-02-14T11:27:51.539Z,56.09
2019-02-14T11:28:51.528Z,55.93
2019-02-14T11:29:51.517Z,54.77
2019-02-14T11:30:51.513Z,53.70
2019-02-14T11:31:51.495Z,53.55
2019-02-14T11:32:51.485Z,51.90
2019-02-14T11:33:51.476Z,52.13
2019-02-14T11:34:51.467Z,50.57
2019-02-14T11:35:51.453Z,50.52
2019-02-14T11:36:51.443Z,50.12
2019-02-14T11:37:51.432Z,47.08
2019-02-14T11:38:51.421Z,48.22
2019-02-14T11:39:51.410Z,49.62
2019-02-14T11:40:51.399Z,49.48
2019-02-14T11:41:51.390Z,48.03
2019-02-14T11:42:51.377Z,48.02
2019-02-14T11:43:51.366Z,49.30
2019-02-14T11:44:51.356Z,48.90
2019-02-14T11:45:51.346Z,48.59
2019-02-14T11:46:51.953Z,48.74
2019-02-14T11:47:51.332Z,47.47
2019-02-14T11:48:51.315Z,47.49
2019-02-14T11:49:51.302Z,47.59
2019-02-14T11:50:51.295Z,47.47
2019-02-14T11:51:51.286Z,46.91
2019-02-14T11:52:51.272Z,47.53
2019-02-14T11:53:51.259Z,47.51
2019-02-14T11:54:51.250Z,47.11
2019-02-14T11:55:51.240Z,49.02
2019-02-14T11:56:51.228Z,47.26
2019-02-14T11:57:51.218Z,46.36
2019-02-14T11:58:51.209Z,47.26
2019-02-14T11:59:51.199Z,46.40
2019-02-14T12:00:51.186Z,47.25
2019-02-14T12:01:55.317Z,49.04
2019-02-14T12:02:55.472Z,49.22
2019-02-14T12:03:52.154Z,50.10
2019-02-14T12:04:51.143Z,51.51
2019-02-14T12:05:51.135Z,52.51
2019-02-14T12:06:51.152Z,51.39
2019-02-14T12:07:51.112Z,50.43
2019-02-14T12:08:59.860Z,48.06
2019-02-14T12:09:52.087Z,46.58
2019-02-14T12:10:51.081Z,46.60
2019-02-14T12:11:51.070Z,46.50
2019-02-14T12:12:51.057Z,47.11
2019-02-14T12:13:51.051Z,47.71
2019-02-14T12:14:51.042Z,46.95
2019-02-14T12:15:51.025Z,47.03
2019-02-14T12:16:51.013Z,47.00
2019-02-14T12:17:51.003Z,46.60
2019-02-14T12:18:50.995Z,47.15
2019-02-14T12:19:50.981Z,48.13
2019-02-14T12:20:50.974Z,48.91
2019-02-14T12:21:50.960Z,50.76
2019-02-14T12:22:50.952Z,50.08
2019-02-14T12:23:50.940Z,49.14
2019-02-14T12:24:50.929Z,49.83
2019-02-14T12:25:50.916Z,46.87
2019-02-14T12:26:50.910Z,48.55
2019-02-14T12:27:50.897Z,49.16
2019-02-14T12:28:50.887Z,49.80
2019-02-14T12:29:50.877Z,50.05
2019-02-14T12:30:50.866Z,48.08
2019-02-14T12:31:50.856Z,46.92
2019-02-14T12:32:50.844Z,48.26
2019-02-14T12:33:50.833Z,46.68
2019-02-14T12:34:50.822Z,44.74
2019-02-14T12:35:50.812Z,45.22
2019-02-14T12:36:50.799Z,44.92
2019-02-14T12:37:50.790Z,44.31
2019-02-14T12:38:50.779Z,44.34
2019-02-14T12:39:50.769Z,45.02
2019-02-14T12:40:50.761Z,44.42
2019-02-14T12:41:50.748Z,45.25
2019-02-14T12:42:50.736Z,46.13
2019-02-14T12:43:50.728Z,46.17
2019-02-14T12:44:50.717Z,46.43
2019-02-14T12:45:50.705Z,43.40
2019-02-14T12:46:50.695Z,43.40
2019-02-14T12:47:50.683Z,44.43
2019-02-14T12:48:50.673Z,45.94
2019-02-14T12:49:50.664Z,47.17
2019-02-14T12:50:50.653Z,47.80
2019-02-14T12:51:50.641Z,48.43
2019-02-14T12:52:50.633Z,49.52